sensor_id;sensor_type;location;lat;lon;timestamp;temperature;humidity
60242;SHT30;46103;52.076;113.488;2023-09-08T00:00:06;12.81;70.41
60242;SHT30;46103;52.076;113.488;2023-09-08T00:03:10;12.97;69.33
60242;SHT30;46103;52.076;113.488;2023-09-08T00:06:14;13.10;69.94
60242;SHT30;46103;52.076;113.488;2023-09-08T00:09:18;13.14;69.55
60242;SHT30;46103;52.076;113.488;2023-09-08T00:12:22;13.27;68.77
60242;SHT30;46103;52.076;113.488;2023-09-08T00:15:26;13.21;68.74
60242;SHT30;46103;52.076;113.488;2023-09-08T00:18:30;13.27;68.62
60242;SHT30;46103;52.076;113.488;2023-09-08T00:21:35;13.36;68.99
60242;SHT30;46103;52.076;113.488;2023-09-08T00:24:39;13.44;67.93
60242;SHT30;46103;52.076;113.488;2023-09-08T00:27:43;13.44;67.62
60242;SHT30;46103;52.076;113.488;2023-09-08T00:30:46;13.59;67.84
60242;SHT30;46103;52.076;113.488;2023-09-08T00:33:50;13.75;66.93
60242;SHT30;46103;52.076;113.488;2023-09-08T00:36:54;13.86;66.22
60242;SHT30;46103;52.076;113.488;2023-09-08T00:39:58;13.81;66.12
60242;SHT30;46103;52.076;113.488;2023-09-08T00:43:01;13.74;66.30
60242;SHT30;46103;52.076;113.488;2023-09-08T00:46:06;13.72;66.40
60242;SHT30;46103;52.076;113.488;2023-09-08T00:49:11;13.72;66.80
60242;SHT30;46103;52.076;113.488;2023-09-08T00:52:16;13.87;67.07
60242;SHT30;46103;52.076;113.488;2023-09-08T00:55:19;14.12;66.29
60242;SHT30;46103;52.076;113.488;2023-09-08T00:58:23;14.34;66.22
60242;SHT30;46103;52.076;113.488;2023-09-08T01:01:28;14.33;65.39
60242;SHT30;46103;52.076;113.488;2023-09-08T01:04:33;14.47;65.34
60242;SHT30;46103;52.076;113.488;2023-09-08T01:07:38;14.52;64.72
60242;SHT30;46103;52.076;113.488;2023-09-08T01:10:42;14.60;64.79
60242;SHT30;46103;52.076;113.488;2023-09-08T01:13:46;14.74;64.08
60242;SHT30;46103;52.076;113.488;2023-09-08T01:16:50;14.78;63.50
60242;SHT30;46103;52.076;113.488;2023-09-08T01:20:00;14.93;63.56
60242;SHT30;46103;52.076;113.488;2023-09-08T01:23:16;14.92;63.47
60242;SHT30;46103;52.076;113.488;2023-09-08T01:26:27;14.96;63.96
60242;SHT30;46103;52.076;113.488;2023-09-08T01:29:31;15.13;63.18
60242;SHT30;46103;52.076;113.488;2023-09-08T01:32:35;15.13;63.02
60242;SHT30;46103;52.076;113.488;2023-09-08T01:35:38;15.29;62.69
60242;SHT30;46103;52.076;113.488;2023-09-08T01:38:42;15.36;62.70
60242;SHT30;46103;52.076;113.488;2023-09-08T01:41:46;15.47;62.28
60242;SHT30;46103;52.076;113.488;2023-09-08T01:44:49;15.63;62.48
60242;SHT30;46103;52.076;113.488;2023-09-08T01:47:52;15.78;61.23
60242;SHT30;46103;52.076;113.488;2023-09-08T01:50:56;15.88;61.21
60242;SHT30;46103;52.076;113.488;2023-09-08T01:54:00;15.82;60.74
60242;SHT30;46103;52.076;113.488;2023-09-08T01:57:05;15.95;60.87
60242;SHT30;46103;52.076;113.488;2023-09-08T02:00:11;15.90;60.70
60242;SHT30;46103;52.076;113.488;2023-09-08T02:03:15;16.13;60.08
60242;SHT30;46103;52.076;113.488;2023-09-08T02:06:19;16.19;59.66
60242;SHT30;46103;52.076;113.488;2023-09-08T02:09:29;16.37;59.73
60242;SHT30;46103;52.076;113.488;2023-09-08T02:12:32;16.63;59.25
60242;SHT30;46103;52.076;113.488;2023-09-08T02:15:36;16.67;58.51
60242;SHT30;46103;52.076;113.488;2023-09-08T02:18:42;16.53;58.82
60242;SHT30;46103;52.076;113.488;2023-09-08T02:21:49;16.63;58.45
60242;SHT30;46103;52.076;113.488;2023-09-08T02:24:53;16.66;58.52
60242;SHT30;46103;52.076;113.488;2023-09-08T02:27:58;16.89;58.13
60242;SHT30;46103;52.076;113.488;2023-09-08T02:31:02;17.12;57.94
60242;SHT30;46103;52.076;113.488;2023-09-08T02:34:05;17.38;57.57
60242;SHT30;46103;52.076;113.488;2023-09-08T02:37:10;17.32;55.48
60242;SHT30;46103;52.076;113.488;2023-09-08T02:40:13;17.18;56.60
60242;SHT30;46103;52.076;113.488;2023-09-08T02:43:17;17.45;56.65
60242;SHT30;46103;52.076;113.488;2023-09-08T02:46:22;17.66;55.35
60242;SHT30;46103;52.076;113.488;2023-09-08T02:49:26;17.38;55.93
60242;SHT30;46103;52.076;113.488;2023-09-08T02:52:30;17.65;56.06
60242;SHT30;46103;52.076;113.488;2023-09-08T02:55:34;17.70;55.29
60242;SHT30;46103;52.076;113.488;2023-09-08T02:58:38;17.59;55.40
60242;SHT30;46103;52.076;113.488;2023-09-08T03:01:43;17.71;54.33
60242;SHT30;46103;52.076;113.488;2023-09-08T03:04:47;17.71;54.45
60242;SHT30;46103;52.076;113.488;2023-09-08T03:07:51;17.86;54.37
60242;SHT30;46103;52.076;113.488;2023-09-08T03:10:56;17.98;54.25
60242;SHT30;46103;52.076;113.488;2023-09-08T03:14:04;17.78;54.57
60242;SHT30;46103;52.076;113.488;2023-09-08T03:17:08;17.73;55.52
60242;SHT30;46103;52.076;113.488;2023-09-08T03:20:12;17.88;55.00
60242;SHT30;46103;52.076;113.488;2023-09-08T03:23:16;18.15;54.18
60242;SHT30;46103;52.076;113.488;2023-09-08T03:26:20;18.38;53.76
60242;SHT30;46103;52.076;113.488;2023-09-08T03:29:23;18.64;52.74
60242;SHT30;46103;52.076;113.488;2023-09-08T03:32:27;18.67;53.10
60242;SHT30;46103;52.076;113.488;2023-09-08T03:35:32;18.60;53.14
60242;SHT30;46103;52.076;113.488;2023-09-08T03:38:36;18.16;52.18
60242;SHT30;46103;52.076;113.488;2023-09-08T03:41:40;18.28;51.86
60242;SHT30;46103;52.076;113.488;2023-09-08T03:44:45;18.52;51.60
60242;SHT30;46103;52.076;113.488;2023-09-08T03:47:48;18.77;50.90
60242;SHT30;46103;52.076;113.488;2023-09-08T03:50:52;18.91;50.28
60242;SHT30;46103;52.076;113.488;2023-09-08T03:53:56;18.84;49.88
60242;SHT30;46103;52.076;113.488;2023-09-08T03:57:00;19.12;50.57
60242;SHT30;46103;52.076;113.488;2023-09-08T04:00:05;19.29;49.47
60242;SHT30;46103;52.076;113.488;2023-09-08T04:03:15;19.15;46.68
60242;SHT30;46103;52.076;113.488;2023-09-08T04:06:19;18.97;46.54
60242;SHT30;46103;52.076;113.488;2023-09-08T04:09:26;18.77;47.57
60242;SHT30;46103;52.076;113.488;2023-09-08T04:12:31;18.77;47.80
60242;SHT30;46103;52.076;113.488;2023-09-08T04:15:35;18.96;47.78
60242;SHT30;46103;52.076;113.488;2023-09-08T04:18:38;19.28;47.77
60242;SHT30;46103;52.076;113.488;2023-09-08T04:21:42;19.41;47.43
60242;SHT30;46103;52.076;113.488;2023-09-08T04:24:46;19.48;47.28
60242;SHT30;46103;52.076;113.488;2023-09-08T04:27:50;19.17;47.87
60242;SHT30;46103;52.076;113.488;2023-09-08T04:30:54;18.93;48.32
60242;SHT30;46103;52.076;113.488;2023-09-08T04:33:57;19.00;48.38
60242;SHT30;46103;52.076;113.488;2023-09-08T04:37:01;18.94;48.75
60242;SHT30;46103;52.076;113.488;2023-09-08T04:40:06;19.07;48.75
60242;SHT30;46103;52.076;113.488;2023-09-08T04:43:12;19.12;47.84
60242;SHT30;46103;52.076;113.488;2023-09-08T04:46:17;19.34;47.40
60242;SHT30;46103;52.076;113.488;2023-09-08T04:49:21;19.75;46.63
60242;SHT30;46103;52.076;113.488;2023-09-08T04:52:26;20.45;45.91
60242;SHT30;46103;52.076;113.488;2023-09-08T04:55:30;20.95;45.24
60242;SHT30;46103;52.076;113.488;2023-09-08T04:58:33;20.92;44.16
60242;SHT30;46103;52.076;113.488;2023-09-08T05:01:38;20.62;44.47
60242;SHT30;46103;52.076;113.488;2023-09-08T05:04:47;20.62;44.05
60242;SHT30;46103;52.076;113.488;2023-09-08T05:07:51;20.90;43.67
60242;SHT30;46103;52.076;113.488;2023-09-08T05:10:59;20.68;43.67
60242;SHT30;46103;52.076;113.488;2023-09-08T05:14:04;20.61;43.23
60242;SHT30;46103;52.076;113.488;2023-09-08T05:17:11;20.89;43.03
60242;SHT30;46103;52.076;113.488;2023-09-08T05:20:14;21.00;44.01
60242;SHT30;46103;52.076;113.488;2023-09-08T05:23:18;21.24;43.83
60242;SHT30;46103;52.076;113.488;2023-09-08T05:26:25;21.58;42.91
60242;SHT30;46103;52.076;113.488;2023-09-08T05:29:28;21.81;42.90
60242;SHT30;46103;52.076;113.488;2023-09-08T05:32:33;21.90;43.36
60242;SHT30;46103;52.076;113.488;2023-09-08T05:35:38;21.90;42.56
60242;SHT30;46103;52.076;113.488;2023-09-08T05:38:43;21.81;42.90
60242;SHT30;46103;52.076;113.488;2023-09-08T05:41:46;21.68;43.26
60242;SHT30;46103;52.076;113.488;2023-09-08T05:44:50;21.41;43.58
60242;SHT30;46103;52.076;113.488;2023-09-08T05:47:57;21.43;42.91
60242;SHT30;46103;52.076;113.488;2023-09-08T05:51:03;21.52;42.37
60242;SHT30;46103;52.076;113.488;2023-09-08T05:54:09;21.41;41.57
60242;SHT30;46103;52.076;113.488;2023-09-08T05:57:13;21.28;41.28
60242;SHT30;46103;52.076;113.488;2023-09-08T06:00:17;21.68;41.46
60242;SHT30;46103;52.076;113.488;2023-09-08T06:03:24;21.81;41.77
60242;SHT30;46103;52.076;113.488;2023-09-08T06:06:29;22.06;41.51
60242;SHT30;46103;52.076;113.488;2023-09-08T06:09:34;21.68;42.62
60242;SHT30;46103;52.076;113.488;2023-09-08T06:12:37;21.85;42.11
60242;SHT30;46103;52.076;113.488;2023-09-08T06:15:41;22.00;42.06
60242;SHT30;46103;52.076;113.488;2023-09-08T06:18:45;21.90;42.74
60242;SHT30;46103;52.076;113.488;2023-09-08T06:21:52;22.13;43.13
60242;SHT30;46103;52.076;113.488;2023-09-08T06:24:57;22.10;42.74
60242;SHT30;46103;52.076;113.488;2023-09-08T06:28:01;22.23;42.94
60242;SHT30;46103;52.076;113.488;2023-09-08T06:31:05;22.37;41.30
60242;SHT30;46103;52.076;113.488;2023-09-08T06:34:11;22.30;41.25
60242;SHT30;46103;52.076;113.488;2023-09-08T06:37:15;22.32;41.74
60242;SHT30;46103;52.076;113.488;2023-09-08T06:40:19;21.92;42.12
60242;SHT30;46103;52.076;113.488;2023-09-08T06:43:24;21.55;43.27
60242;SHT30;46103;52.076;113.488;2023-09-08T06:46:37;21.37;43.82
60242;SHT30;46103;52.076;113.488;2023-09-08T06:49:40;21.37;44.22
60242;SHT30;46103;52.076;113.488;2023-09-08T06:52:45;21.19;44.50
60242;SHT30;46103;52.076;113.488;2023-09-08T06:55:48;21.20;44.39
60242;SHT30;46103;52.076;113.488;2023-09-08T06:58:53;21.17;44.79
60242;SHT30;46103;52.076;113.488;2023-09-08T07:01:57;21.17;44.55
60242;SHT30;46103;52.076;113.488;2023-09-08T07:05:01;21.07;44.63
60242;SHT30;46103;52.076;113.488;2023-09-08T07:08:10;21.00;45.11
60242;SHT30;46103;52.076;113.488;2023-09-08T07:11:13;20.85;45.52
60242;SHT30;46103;52.076;113.488;2023-09-08T07:14:20;20.68;45.86
60242;SHT30;46103;52.076;113.488;2023-09-08T07:17:24;20.52;46.15
60242;SHT30;46103;52.076;113.488;2023-09-08T07:20:28;20.48;46.81
60242;SHT30;46103;52.076;113.488;2023-09-08T07:23:33;20.35;46.61
60242;SHT30;46103;52.076;113.488;2023-09-08T07:26:39;20.24;47.34
60242;SHT30;46103;52.076;113.488;2023-09-08T07:29:43;20.07;47.42
60242;SHT30;46103;52.076;113.488;2023-09-08T07:32:46;19.97;47.82
60242;SHT30;46103;52.076;113.488;2023-09-08T07:35:50;19.94;47.86
60242;SHT30;46103;52.076;113.488;2023-09-08T07:38:53;20.00;48.24
60242;SHT30;46103;52.076;113.488;2023-09-08T07:41:56;20.04;48.14
60242;SHT30;46103;52.076;113.488;2023-09-08T07:45:03;20.35;47.75
60242;SHT30;46103;52.076;113.488;2023-09-08T07:48:07;20.75;47.68
60242;SHT30;46103;52.076;113.488;2023-09-08T07:51:14;20.99;46.88
60242;SHT30;46103;52.076;113.488;2023-09-08T07:54:18;21.03;47.24
60242;SHT30;46103;52.076;113.488;2023-09-08T07:57:21;20.99;46.48
60242;SHT30;46103;52.076;113.488;2023-09-08T08:00:25;20.85;46.54
60242;SHT30;46103;52.076;113.488;2023-09-08T08:03:29;20.65;47.19
60242;SHT30;46103;52.076;113.488;2023-09-08T08:06:32;20.49;47.74
60242;SHT30;46103;52.076;113.488;2023-09-08T08:09:35;20.06;49.02
60242;SHT30;46103;52.076;113.488;2023-09-08T08:12:42;20.06;49.07
60242;SHT30;46103;52.076;113.488;2023-09-08T08:15:46;19.96;48.10
60242;SHT30;46103;52.076;113.488;2023-09-08T08:18:50;20.09;48.99
60242;SHT30;46103;52.076;113.488;2023-09-08T08:21:54;20.31;48.22
60242;SHT30;46103;52.076;113.488;2023-09-08T08:25:01;20.93;47.55
60242;SHT30;46103;52.076;113.488;2023-09-08T08:28:07;22.69;44.47
60242;SHT30;46103;52.076;113.488;2023-09-08T08:31:13;24.66;41.44
60242;SHT30;46103;52.076;113.488;2023-09-08T08:34:18;26.22;38.65
60242;SHT30;46103;52.076;113.488;2023-09-08T08:37:22;27.07;36.90
60242;SHT30;46103;52.076;113.488;2023-09-08T08:40:26;27.42;36.26
60242;SHT30;46103;52.076;113.488;2023-09-08T08:43:32;27.47;35.78
60242;SHT30;46103;52.076;113.488;2023-09-08T08:46:38;26.56;36.33
60242;SHT30;46103;52.076;113.488;2023-09-08T08:49:44;26.38;36.89
60242;SHT30;46103;52.076;113.488;2023-09-08T08:52:51;26.25;37.37
60242;SHT30;46103;52.076;113.488;2023-09-08T08:55:56;25.80;37.89
60242;SHT30;46103;52.076;113.488;2023-09-08T08:59:02;25.36;38.93
60242;SHT30;46103;52.076;113.488;2023-09-08T09:02:09;25.58;38.77
60242;SHT30;46103;52.076;113.488;2023-09-08T09:05:13;25.41;38.10
60242;SHT30;46103;52.076;113.488;2023-09-08T09:08:18;25.28;38.22
60242;SHT30;46103;52.076;113.488;2023-09-08T09:11:22;25.61;38.07
60242;SHT30;46103;52.076;113.488;2023-09-08T09:14:25;25.01;38.71
60242;SHT30;46103;52.076;113.488;2023-09-08T09:17:29;24.86;39.03
60242;SHT30;46103;52.076;113.488;2023-09-08T09:20:33;24.69;38.89
60242;SHT30;46103;52.076;113.488;2023-09-08T09:23:37;23.74;41.16
60242;SHT30;46103;52.076;113.488;2023-09-08T09:26:41;23.05;41.50
60242;SHT30;46103;52.076;113.488;2023-09-08T09:29:49;22.51;42.59
60242;SHT30;46103;52.076;113.488;2023-09-08T09:33:01;22.10;43.42
60242;SHT30;46103;52.076;113.488;2023-09-08T09:36:05;21.74;44.54
60242;SHT30;46103;52.076;113.488;2023-09-08T09:39:10;21.40;45.64
60242;SHT30;46103;52.076;113.488;2023-09-08T09:42:14;21.02;46.41
60242;SHT30;46103;52.076;113.488;2023-09-08T09:45:18;20.68;47.27
60242;SHT30;46103;52.076;113.488;2023-09-08T09:48:22;20.35;48.32
60242;SHT30;46103;52.076;113.488;2023-09-08T09:51:27;20.06;48.87
60242;SHT30;46103;52.076;113.488;2023-09-08T09:54:30;19.83;50.97
60242;SHT30;46103;52.076;113.488;2023-09-08T09:57:33;19.48;52.87
60242;SHT30;46103;52.076;113.488;2023-09-08T10:00:38;19.06;54.48
60242;SHT30;46103;52.076;113.488;2023-09-08T10:03:52;18.77;55.69
60242;SHT30;46103;52.076;113.488;2023-09-08T10:06:57;18.76;54.32
60242;SHT30;46103;52.076;113.488;2023-09-08T10:10:01;18.74;55.44
60242;SHT30;46103;52.076;113.488;2023-09-08T10:13:06;19.18;58.50
60242;SHT30;46103;52.076;113.488;2023-09-08T10:16:16;19.21;55.50
60242;SHT30;46103;52.076;113.488;2023-09-08T10:19:22;19.28;58.29
60242;SHT30;46103;52.076;113.488;2023-09-08T10:22:30;19.39;59.82
60242;SHT30;46103;52.076;113.488;2023-09-08T10:25:39;19.36;60.68
60242;SHT30;46103;52.076;113.488;2023-09-08T10:28:46;19.08;60.18
60242;SHT30;46103;52.076;113.488;2023-09-08T10:31:49;19.21;59.32
60242;SHT30;46103;52.076;113.488;2023-09-08T10:34:54;19.93;58.31
60242;SHT30;46103;52.076;113.488;2023-09-08T10:38:26;20.62;56.75
60242;SHT30;46103;52.076;113.488;2023-09-08T10:41:30;20.97;55.99
60242;SHT30;46103;52.076;113.488;2023-09-08T10:44:35;21.06;55.72
60242;SHT30;46103;52.076;113.488;2023-09-08T10:50:49;20.14;57.36
60242;SHT30;46103;52.076;113.488;2023-09-08T10:53:53;19.66;58.00
60242;SHT30;46103;52.076;113.488;2023-09-08T10:56:57;19.25;59.02
60242;SHT30;46103;52.076;113.488;2023-09-08T11:00:05;18.76;60.65
60242;SHT30;46103;52.076;113.488;2023-09-08T11:03:27;18.32;62.49
60242;SHT30;46103;52.076;113.488;2023-09-08T11:06:31;17.91;64.19
60242;SHT30;46103;52.076;113.488;2023-09-08T11:09:36;17.57;64.86
60242;SHT30;46103;52.076;113.488;2023-09-08T11:12:40;17.35;65.37
60242;SHT30;46103;52.076;113.488;2023-09-08T11:15:44;17.02;65.95
60242;SHT30;46103;52.076;113.488;2023-09-08T11:18:51;16.68;66.79
60242;SHT30;46103;52.076;113.488;2023-09-08T11:21:55;16.50;67.75
60242;SHT30;46103;52.076;113.488;2023-09-08T11:25:00;16.32;69.47
60242;SHT30;46103;52.076;113.488;2023-09-08T11:28:04;16.28;70.01
60242;SHT30;46103;52.076;113.488;2023-09-08T11:31:11;16.22;69.81
60242;SHT30;46103;52.076;113.488;2023-09-08T11:34:16;16.18;69.28
60242;SHT30;46103;52.076;113.488;2023-09-08T11:37:21;16.06;69.10
60242;SHT30;46103;52.076;113.488;2023-09-08T11:40:25;15.91;68.53
60242;SHT30;46103;52.076;113.488;2023-09-08T11:43:30;15.81;68.34
60242;SHT30;46103;52.076;113.488;2023-09-08T11:46:37;15.78;68.49
60242;SHT30;46103;52.076;113.488;2023-09-08T11:49:42;15.78;67.15
60242;SHT30;46103;52.076;113.488;2023-09-08T11:52:49;15.77;66.12
60242;SHT30;46103;52.076;113.488;2023-09-08T11:55:54;15.71;66.41
60242;SHT30;46103;52.076;113.488;2023-09-08T11:59:00;15.67;66.85
60242;SHT30;46103;52.076;113.488;2023-09-08T12:02:05;15.55;67.35
60242;SHT30;46103;52.076;113.488;2023-09-08T12:05:22;15.49;67.56
60242;SHT30;46103;52.076;113.488;2023-09-08T12:08:27;15.44;67.81
60242;SHT30;46103;52.076;113.488;2023-09-08T12:11:33;15.43;69.05
60242;SHT30;46103;52.076;113.488;2023-09-08T12:14:42;15.36;68.51
60242;SHT30;46103;52.076;113.488;2023-09-08T12:17:50;15.27;68.48
60242;SHT30;46103;52.076;113.488;2023-09-08T12:21:03;15.15;69.73
60242;SHT30;46103;52.076;113.488;2023-09-08T12:24:11;15.02;70.12
60242;SHT30;46103;52.076;113.488;2023-09-08T12:27:20;14.92;70.47
60242;SHT30;46103;52.076;113.488;2023-09-08T12:30:25;14.82;71.57
60242;SHT30;46103;52.076;113.488;2023-09-08T12:33:34;14.71;69.93
60242;SHT30;46103;52.076;113.488;2023-09-08T12:36:43;14.61;71.16
60242;SHT30;46103;52.076;113.488;2023-09-08T12:39:50;14.60;72.15
60242;SHT30;46103;52.076;113.488;2023-09-08T12:42:55;14.57;72.20
60242;SHT30;46103;52.076;113.488;2023-09-08T12:46:06;14.54;72.75
60242;SHT30;46103;52.076;113.488;2023-09-08T12:49:11;14.50;72.67
60242;SHT30;46103;52.076;113.488;2023-09-08T12:52:17;14.51;72.60
60242;SHT30;46103;52.076;113.488;2023-09-08T12:55:22;14.45;72.57
60242;SHT30;46103;52.076;113.488;2023-09-08T12:58:27;14.45;72.56
60242;SHT30;46103;52.076;113.488;2023-09-08T13:01:32;14.42;72.60
60242;SHT30;46103;52.076;113.488;2023-09-08T13:04:37;14.41;72.80
60242;SHT30;46103;52.076;113.488;2023-09-08T13:07:43;14.33;72.37
60242;SHT30;46103;52.076;113.488;2023-09-08T13:10:48;14.30;72.32
60242;SHT30;46103;52.076;113.488;2023-09-08T13:13:52;14.29;72.58
60242;SHT30;46103;52.076;113.488;2023-09-08T13:16:57;14.26;72.47
60242;SHT30;46103;52.076;113.488;2023-09-08T13:20:02;14.22;72.16
60242;SHT30;46103;52.076;113.488;2023-09-08T13:23:09;14.22;71.21
60242;SHT30;46103;52.076;113.488;2023-09-08T13:26:13;14.19;71.20
60242;SHT30;46103;52.076;113.488;2023-09-08T13:29:18;14.16;70.89
60242;SHT30;46103;52.076;113.488;2023-09-08T13:32:23;14.13;70.96
60242;SHT30;46103;52.076;113.488;2023-09-08T13:35:32;14.17;70.46
60242;SHT30;46103;52.076;113.488;2023-09-08T13:38:36;14.16;70.82
60242;SHT30;46103;52.076;113.488;2023-09-08T13:41:54;14.16;70.91
60242;SHT30;46103;52.076;113.488;2023-09-08T13:44:58;14.14;71.53
60242;SHT30;46103;52.076;113.488;2023-09-08T13:48:03;14.14;71.43
60242;SHT30;46103;52.076;113.488;2023-09-08T13:51:09;14.17;71.55
60242;SHT30;46103;52.076;113.488;2023-09-08T13:54:16;14.17;71.58
60242;SHT30;46103;52.076;113.488;2023-09-08T13:57:20;14.22;72.48
60242;SHT30;46103;52.076;113.488;2023-09-08T14:00:26;14.22;72.77
60242;SHT30;46103;52.076;113.488;2023-09-08T14:03:32;14.19;72.05
60242;SHT30;46103;52.076;113.488;2023-09-08T14:06:38;14.17;72.13
60242;SHT30;46103;52.076;113.488;2023-09-08T14:09:51;14.17;71.76
60242;SHT30;46103;52.076;113.488;2023-09-08T14:13:06;14.17;71.36
60242;SHT30;46103;52.076;113.488;2023-09-08T14:16:13;14.17;71.30
60242;SHT30;46103;52.076;113.488;2023-09-08T14:19:17;14.20;71.01
60242;SHT30;46103;52.076;113.488;2023-09-08T14:22:20;14.20;70.66
60242;SHT30;46103;52.076;113.488;2023-09-08T14:25:24;14.22;70.58
60242;SHT30;46103;52.076;113.488;2023-09-08T14:28:27;14.27;70.78
60242;SHT30;46103;52.076;113.488;2023-09-08T14:31:33;14.34;70.69
60242;SHT30;46103;52.076;113.488;2023-09-08T14:34:36;14.41;70.69
60242;SHT30;46103;52.076;113.488;2023-09-08T14:37:43;14.45;70.86
60242;SHT30;46103;52.076;113.488;2023-09-08T14:41:01;14.50;70.64
60242;SHT30;46103;52.076;113.488;2023-09-08T14:44:05;14.51;70.24
60242;SHT30;46103;52.076;113.488;2023-09-08T14:47:09;14.47;70.41
60242;SHT30;46103;52.076;113.488;2023-09-08T14:50:12;14.48;71.90
60242;SHT30;46103;52.076;113.488;2023-09-08T14:53:16;14.48;72.16
60242;SHT30;46103;52.076;113.488;2023-09-08T14:56:20;14.47;72.21
60242;SHT30;46103;52.076;113.488;2023-09-08T14:59:25;14.47;72.67
60242;SHT30;46103;52.076;113.488;2023-09-08T15:02:29;14.34;73.58
60242;SHT30;46103;52.076;113.488;2023-09-08T15:05:33;13.83;74.95
60242;SHT30;46103;52.076;113.488;2023-09-08T15:08:37;13.43;77.52
60242;SHT30;46103;52.076;113.488;2023-09-08T15:11:43;13.30;78.81
60242;SHT30;46103;52.076;113.488;2023-09-08T15:14:47;13.44;78.66
60242;SHT30;46103;52.076;113.488;2023-09-08T15:17:54;13.58;78.40
60242;SHT30;46103;52.076;113.488;2023-09-08T15:20:57;13.68;77.72
60242;SHT30;46103;52.076;113.488;2023-09-08T15:24:01;13.64;79.29
60242;SHT30;46103;52.076;113.488;2023-09-08T15:27:06;13.53;80.53
60242;SHT30;46103;52.076;113.488;2023-09-08T15:30:13;13.44;82.08
60242;SHT30;46103;52.076;113.488;2023-09-08T15:33:17;13.40;82.86
60242;SHT30;46103;52.076;113.488;2023-09-08T15:36:23;13.37;83.65
60242;SHT30;46103;52.076;113.488;2023-09-08T15:39:27;13.37;83.75
60242;SHT30;46103;52.076;113.488;2023-09-08T15:42:30;13.37;82.26
60242;SHT30;46103;52.076;113.488;2023-09-08T15:45:34;13.36;82.51
60242;SHT30;46103;52.076;113.488;2023-09-08T15:48:38;13.40;82.44
60242;SHT30;46103;52.076;113.488;2023-09-08T15:51:42;13.44;80.75
60242;SHT30;46103;52.076;113.488;2023-09-08T15:54:45;13.48;81.41
60242;SHT30;46103;52.076;113.488;2023-09-08T15:57:50;13.36;81.10
60242;SHT30;46103;52.076;113.488;2023-09-08T16:00:53;13.28;79.75
60242;SHT30;46103;52.076;113.488;2023-09-08T16:03:57;13.34;78.67
60242;SHT30;46103;52.076;113.488;2023-09-08T16:07:01;13.31;78.74
60242;SHT30;46103;52.076;113.488;2023-09-08T16:10:05;13.34;79.19
60242;SHT30;46103;52.076;113.488;2023-09-08T16:13:09;13.38;80.03
60242;SHT30;46103;52.076;113.488;2023-09-08T16:16:13;13.36;81.32
60242;SHT30;46103;52.076;113.488;2023-09-08T16:19:16;13.31;82.10
60242;SHT30;46103;52.076;113.488;2023-09-08T16:22:21;13.34;82.71
60242;SHT30;46103;52.076;113.488;2023-09-08T16:25:24;13.34;82.78
60242;SHT30;46103;52.076;113.488;2023-09-08T16:28:29;13.28;83.06
60242;SHT30;46103;52.076;113.488;2023-09-08T16:31:32;13.31;83.20
60242;SHT30;46103;52.076;113.488;2023-09-08T16:34:36;13.28;83.04
60242;SHT30;46103;52.076;113.488;2023-09-08T16:37:40;13.19;83.06
60242;SHT30;46103;52.076;113.488;2023-09-08T16:40:44;13.16;83.50
60242;SHT30;46103;52.076;113.488;2023-09-08T16:43:47;13.21;84.11
60242;SHT30;46103;52.076;113.488;2023-09-08T16:46:51;13.17;83.61
60242;SHT30;46103;52.076;113.488;2023-09-08T16:49:55;13.17;83.90
60242;SHT30;46103;52.076;113.488;2023-09-08T16:52:58;13.13;84.10
60242;SHT30;46103;52.076;113.488;2023-09-08T16:56:01;13.07;83.85
60242;SHT30;46103;52.076;113.488;2023-09-08T16:59:11;12.93;83.89
60242;SHT30;46103;52.076;113.488;2023-09-08T17:02:14;12.88;84.25
60242;SHT30;46103;52.076;113.488;2023-09-08T17:05:18;12.78;84.36
60242;SHT30;46103;52.076;113.488;2023-09-08T17:08:21;12.71;84.51
60242;SHT30;46103;52.076;113.488;2023-09-08T17:11:26;12.59;84.90
60242;SHT30;46103;52.076;113.488;2023-09-08T17:14:29;12.44;85.45
60242;SHT30;46103;52.076;113.488;2023-09-08T17:17:33;12.34;85.60
60242;SHT30;46103;52.076;113.488;2023-09-08T17:20:36;12.24;85.76
60242;SHT30;46103;52.076;113.488;2023-09-08T17:23:40;12.21;85.73
60242;SHT30;46103;52.076;113.488;2023-09-08T17:26:43;12.16;85.56
60242;SHT30;46103;52.076;113.488;2023-09-08T17:29:47;12.18;85.23
60242;SHT30;46103;52.076;113.488;2023-09-08T17:32:50;12.21;84.93
60242;SHT30;46103;52.076;113.488;2023-09-08T17:35:54;12.21;84.80
60242;SHT30;46103;52.076;113.488;2023-09-08T17:38:58;12.23;84.73
60242;SHT30;46103;52.076;113.488;2023-09-08T17:42:01;12.18;84.93
60242;SHT30;46103;52.076;113.488;2023-09-08T17:45:06;12.17;85.13
60242;SHT30;46103;52.076;113.488;2023-09-08T17:48:10;12.14;85.37
60242;SHT30;46103;52.076;113.488;2023-09-08T17:51:16;12.12;85.60
60242;SHT30;46103;52.076;113.488;2023-09-08T17:54:20;12.04;85.69
60242;SHT30;46103;52.076;113.488;2023-09-08T17:57:24;11.98;85.50
60242;SHT30;46103;52.076;113.488;2023-09-08T18:00:27;11.94;85.40
60242;SHT30;46103;52.076;113.488;2023-09-08T18:03:31;11.93;85.48
60242;SHT30;46103;52.076;113.488;2023-09-08T18:06:35;11.94;85.41
60242;SHT30;46103;52.076;113.488;2023-09-08T18:09:39;11.91;85.43
60242;SHT30;46103;52.076;113.488;2023-09-08T18:12:43;11.86;85.60
60242;SHT30;46103;52.076;113.488;2023-09-08T18:15:46;11.82;86.07
60242;SHT30;46103;52.076;113.488;2023-09-08T18:18:49;11.79;86.42
60242;SHT30;46103;52.076;113.488;2023-09-08T18:21:53;11.69;86.77
60242;SHT30;46103;52.076;113.488;2023-09-08T18:24:57;11.62;86.97
60242;SHT30;46103;52.076;113.488;2023-09-08T18:28:01;11.46;87.52
60242;SHT30;46103;52.076;113.488;2023-09-08T18:31:05;11.45;87.62
60242;SHT30;46103;52.076;113.488;2023-09-08T18:34:09;11.42;87.49
60242;SHT30;46103;52.076;113.488;2023-09-08T18:37:13;11.38;87.42
60242;SHT30;46103;52.076;113.488;2023-09-08T18:40:16;11.35;87.67
60242;SHT30;46103;52.076;113.488;2023-09-08T18:43:19;11.38;87.91
60242;SHT30;46103;52.076;113.488;2023-09-08T18:46:22;11.42;88.25
60242;SHT30;46103;52.076;113.488;2023-09-08T18:49:26;11.39;87.95
60242;SHT30;46103;52.076;113.488;2023-09-08T18:52:29;11.39;87.89
60242;SHT30;46103;52.076;113.488;2023-09-08T18:55:33;11.36;88.16